sensor_id;sensor_type;location;lat;lon;timestamp;pressure;altitude;pressure_sealevel;temperature;humidity
74633;BME280;63139;52.018;8.552;2023-04-25T00:00:22;99699.97;;;7.13;78.10
74633;BME280;63139;52.018;8.552;2023-04-25T00:02:50;99691.63;;;7.09;78.22
74633;BME280;63139;52.018;8.552;2023-04-25T00:05:18;99691.25;;;7.12;77.89
74633;BME280;63139;52.018;8.552;2023-04-25T00:07:46;99699.16;;;7.12;77.78
74633;BME280;63139;52.018;8.552;2023-04-25T00:10:14;99701.16;;;7.10;78.30
74633;BME280;63139;52.018;8.552;2023-04-25T00:12:43;99703.28;;;7.15;78.05
74633;BME280;63139;52.018;8.552;2023-04-25T00:15:12;99709.53;;;7.14;78.59
74633;BME280;63139;52.018;8.552;2023-04-25T00:17:40;99706.75;;;7.15;78.47
74633;BME280;63139;52.018;8.552;2023-04-25T00:20:08;99712.47;;;7.19;78.76
74633;BME280;63139;52.018;8.552;2023-04-25T00:22:36;99719.59;;;7.18;79.27
74633;BME280;63139;52.018;8.552;2023-04-25T00:25:05;99713.50;;;7.18;79.55
74633;BME280;63139;52.018;8.552;2023-04-25T00:27:33;99707.56;;;7.16;79.82
74633;BME280;63139;52.018;8.552;2023-04-25T00:30:02;99704.94;;;7.16;79.98
74633;BME280;63139;52.018;8.552;2023-04-25T00:32:30;99709.38;;;7.15;80.20
74633;BME280;63139;52.018;8.552;2023-04-25T00:34:58;99712.81;;;7.16;80.12
74633;BME280;63139;52.018;8.552;2023-04-25T00:37:26;99707.72;;;7.14;80.28
74633;BME280;63139;52.018;8.552;2023-04-25T00:39:54;99711.50;;;7.12;80.53
74633;BME280;63139;52.018;8.552;2023-04-25T00:42:22;99708.38;;;7.08;80.98
74633;BME280;63139;52.018;8.552;2023-04-25T00:44:51;99712.81;;;7.08;81.04
74633;BME280;63139;52.018;8.552;2023-04-25T00:47:21;99705.75;;;7.08;80.73
74633;BME280;63139;52.018;8.552;2023-04-25T00:49:50;99702.31;;;7.08;80.96
74633;BME280;63139;52.018;8.552;2023-04-25T00:52:19;99700.66;;;7.07;80.93
74633;BME280;63139;52.018;8.552;2023-04-25T00:54:47;99701.31;;;7.09;80.93
74633;BME280;63139;52.018;8.552;2023-04-25T00:57:15;99695.53;;;7.05;81.44
74633;BME280;63139;52.018;8.552;2023-04-25T00:59:45;99700.66;;;7.07;82.03
74633;BME280;63139;52.018;8.552;2023-04-25T01:02:13;99691.09;;;7.06;81.86
74633;BME280;63139;52.018;8.552;2023-04-25T01:04:42;99687.84;;;7.04;81.70
74633;BME280;63139;52.018;8.552;2023-04-25T01:07:10;99694.91;;;7.03;81.69
74633;BME280;63139;52.018;8.552;2023-04-25T01:09:38;99700.16;;;7.03;81.77
74633;BME280;63139;52.018;8.552;2023-04-25T01:12:06;99696.72;;;7.03;81.67
74633;BME280;63139;52.018;8.552;2023-04-25T01:14:34;99706.25;;;7.04;81.74
74633;BME280;63139;52.018;8.552;2023-04-25T01:17:02;99697.34;;;7.05;81.24
74633;BME280;63139;52.018;8.552;2023-04-25T01:19:30;99703.28;;;7.07;81.57
74633;BME280;63139;52.018;8.552;2023-04-25T01:21:59;99692.75;;;7.07;81.65
74633;BME280;63139;52.018;8.552;2023-04-25T01:24:29;99698.69;;;7.09;81.67
74633;BME280;63139;52.018;8.552;2023-04-25T01:26:58;99695.22;;;7.08;81.77
74633;BME280;63139;52.018;8.552;2023-04-25T01:29:27;99692.28;;;7.11;81.97
74633;BME280;63139;52.018;8.552;2023-04-25T01:31:56;99691.25;;;7.12;81.80
74633;BME280;63139;52.018;8.552;2023-04-25T01:34:25;99695.06;;;7.10;82.01
74633;BME280;63139;52.018;8.552;2023-04-25T01:36:53;99699.50;;;7.09;82.71
74633;BME280;63139;52.018;8.552;2023-04-25T01:39:23;99697.03;;;7.08;82.52
74633;BME280;63139;52.018;8.552;2023-04-25T01:41:51;99698.03;;;7.07;82.69
74633;BME280;63139;52.018;8.552;2023-04-25T01:44:19;99701.78;;;7.04;82.87
74633;BME280;63139;52.018;8.552;2023-04-25T01:46:47;99713.13;;;7.05;82.90
74633;BME280;63139;52.018;8.552;2023-04-25T01:49:15;99715.63;;;7.06;83.34
74633;BME280;63139;52.018;8.552;2023-04-25T01:51:44;99721.88;;;7.05;83.46
74633;BME280;63139;52.018;8.552;2023-04-25T01:54:12;99720.88;;;7.06;83.81
74633;BME280;63139;52.018;8.552;2023-04-25T01:56:42;99721.53;;;7.08;83.51
74633;BME280;63139;52.018;8.552;2023-04-25T01:59:10;99733.72;;;7.09;83.50
74633;BME280;63139;52.018;8.552;2023-04-25T02:01:54;99738.84;;;7.11;83.78
74633;BME280;63139;52.018;8.552;2023-04-25T02:04:27;99740.44;;;7.12;83.99
74633;BME280;63139;52.018;8.552;2023-04-25T02:06:56;99737.81;;;7.12;83.94
74633;BME280;63139;52.018;8.552;2023-04-25T02:09:31;99736.19;;;7.11;83.82
74633;BME280;63139;52.018;8.552;2023-04-25T02:12:04;99743.91;;;7.12;83.83
74633;BME280;63139;52.018;8.552;2023-04-25T02:14:36;99734.19;;;7.13;83.47
74633;BME280;63139;52.018;8.552;2023-04-25T02:17:14;99736.00;;;7.12;83.77
74633;BME280;63139;52.018;8.552;2023-04-25T02:19:43;99748.19;;;7.13;83.93
74633;BME280;63139;52.018;8.552;2023-04-25T02:22:12;99741.13;;;7.14;83.68
74633;BME280;63139;52.018;8.552;2023-04-25T02:24:39;99745.25;;;7.16;83.88
74633;BME280;63139;52.018;8.552;2023-04-25T02:27:09;99749.69;;;7.16;83.52
74633;BME280;63139;52.018;8.552;2023-04-25T02:29:36;99744.56;;;7.14;83.38
74633;BME280;63139;52.018;8.552;2023-04-25T02:32:04;99745.41;;;7.15;83.90
74633;BME280;63139;52.018;8.552;2023-04-25T02:34:32;99747.03;;;7.16;83.85
74633;BME280;63139;52.018;8.552;2023-04-25T02:37:00;99748.34;;;7.12;83.58
74633;BME280;63139;52.018;8.552;2023-04-25T02:39:27;99752.00;;;7.11;83.97
74633;BME280;63139;52.018;8.552;2023-04-25T02:41:55;99744.25;;;7.09;84.08
74633;BME280;63139;52.018;8.552;2023-04-25T02:44:24;99756.59;;;7.09;84.09
74633;BME280;63139;52.018;8.552;2023-04-25T02:46:52;99752.00;;;7.11;84.49
74633;BME280;63139;52.018;8.552;2023-04-25T02:49:22;99748.84;;;7.07;84.43
74633;BME280;63139;52.018;8.552;2023-04-25T02:51:51;99754.94;;;7.08;83.89
74633;BME280;63139;52.018;8.552;2023-04-25T02:54:19;99761.00;;;7.00;83.95
74633;BME280;63139;52.018;8.552;2023-04-25T02:56:47;99760.84;;;7.01;83.95
74633;BME280;63139;52.018;8.552;2023-04-25T02:59:21;99761.69;;;7.02;83.64
74633;BME280;63139;52.018;8.552;2023-04-25T03:01:51;99757.72;;;6.98;84.13
74633;BME280;63139;52.018;8.552;2023-04-25T03:04:18;99761.00;;;7.00;83.52
74633;BME280;63139;52.018;8.552;2023-04-25T03:06:47;99764.16;;;6.95;83.47
74633;BME280;63139;52.018;8.552;2023-04-25T03:09:15;99763.97;;;6.97;83.09
74633;BME280;63139;52.018;8.552;2023-04-25T03:11:43;99758.69;;;6.97;82.96
74633;BME280;63139;52.018;8.552;2023-04-25T03:14:12;99766.78;;;6.95;82.53
74633;BME280;63139;52.018;8.552;2023-04-25T03:16:40;99766.41;;;6.90;82.61
74633;BME280;63139;52.018;8.552;2023-04-25T03:19:09;99766.09;;;6.85;82.53
74633;BME280;63139;52.018;8.552;2023-04-25T03:21:36;99767.06;;;6.84;82.08
74633;BME280;63139;52.018;8.552;2023-04-25T03:24:05;99773.31;;;6.83;82.17
74633;BME280;63139;52.018;8.552;2023-04-25T03:26:32;99777.41;;;6.78;82.23
74633;BME280;63139;52.018;8.552;2023-04-25T03:29:00;99772.81;;;6.80;81.95
74633;BME280;63139;52.018;8.552;2023-04-25T03:31:29;99776.09;;;6.74;81.91
74633;BME280;63139;52.018;8.552;2023-04-25T03:33:57;99778.06;;;6.72;81.80
74633;BME280;63139;52.018;8.552;2023-04-25T03:36:26;99796.63;;;6.70;82.09
74633;BME280;63139;52.018;8.552;2023-04-25T03:38:54;99782.66;;;6.70;81.96
74633;BME280;63139;52.018;8.552;2023-04-25T03:41:22;99792.19;;;6.71;82.28
74633;BME280;63139;52.018;8.552;2023-04-25T03:43:59;99800.09;;;6.71;82.32
74633;BME280;63139;52.018;8.552;2023-04-25T03:46:27;99799.09;;;6.72;82.36
74633;BME280;63139;52.018;8.552;2023-04-25T03:48:55;99802.41;;;6.74;82.44
74633;BME280;63139;52.018;8.552;2023-04-25T03:51:31;99806.34;;;6.78;82.26
74633;BME280;63139;52.018;8.552;2023-04-25T03:54:00;99809.00;;;6.78;81.34
74633;BME280;63139;52.018;8.552;2023-04-25T03:56:37;99813.13;;;6.80;81.78
74633;BME280;63139;52.018;8.552;2023-04-25T03:59:15;99814.56;;;6.75;81.84
74633;BME280;63139;52.018;8.552;2023-04-25T04:01:44;99821.66;;;6.74;81.31
74633;BME280;63139;52.018;8.552;2023-04-25T04:04:12;99833.78;;;6.75;81.36
74633;BME280;63139;52.018;8.552;2023-04-25T04:06:41;99823.59;;;6.72;80.96
74633;BME280;63139;52.018;8.552;2023-04-25T04:09:15;99828.72;;;6.74;81.07
74633;BME280;63139;52.018;8.552;2023-04-25T04:11:43;99825.41;;;6.72;80.74
74633;BME280;63139;52.018;8.552;2023-04-25T04:14:11;99839.22;;;6.66;80.81
74633;BME280;63139;52.018;8.552;2023-04-25T04:16:43;99837.56;;;6.65;80.65
74633;BME280;63139;52.018;8.552;2023-04-25T04:19:11;99841.00;;;6.65;81.04
74633;BME280;63139;52.018;8.552;2023-04-25T04:21:45;99839.66;;;6.61;80.50
74633;BME280;63139;52.018;8.552;2023-04-25T04:24:12;99848.53;;;6.60;80.52
74633;BME280;63139;52.018;8.552;2023-04-25T04:26:50;99849.69;;;6.57;80.20
74633;BME280;63139;52.018;8.552;2023-04-25T04:29:29;99857.44;;;6.59;79.82
74633;BME280;63139;52.018;8.552;2023-04-25T04:32:02;99859.38;;;6.57;79.72
74633;BME280;63139;52.018;8.552;2023-04-25T04:34:31;99863.97;;;6.55;79.79
74633;BME280;63139;52.018;8.552;2023-04-25T04:37:02;99860.22;;;6.57;79.97
74633;BME280;63139;52.018;8.552;2023-04-25T04:39:29;99865.47;;;6.57;80.09
74633;BME280;63139;52.018;8.552;2023-04-25T04:42:08;99873.22;;;6.59;79.84
74633;BME280;63139;52.018;8.552;2023-04-25T04:44:58;99869.56;;;6.60;80.38
74633;BME280;63139;52.018;8.552;2023-04-25T04:47:57;99874.69;;;6.61;80.45
74633;BME280;63139;52.018;8.552;2023-04-25T04:50:35;99871.75;;;6.65;80.36
74633;BME280;63139;52.018;8.552;2023-04-25T04:53:15;99874.53;;;6.63;80.37
74633;BME280;63139;52.018;8.552;2023-04-25T04:56:06;99880.47;;;6.65;80.20
74633;BME280;63139;52.018;8.552;2023-04-25T04:58:54;99882.25;;;6.65;79.96
74633;BME280;63139;52.018;8.552;2023-04-25T05:01:43;99888.84;;;6.69;80.28
74633;BME280;63139;52.018;8.552;2023-04-25T05:04:20;99885.56;;;6.75;80.15
74633;BME280;63139;52.018;8.552;2023-04-25T05:07:18;99884.59;;;6.76;79.83
74633;BME280;63139;52.018;8.552;2023-04-25T05:09:58;99894.84;;;6.87;79.67
74633;BME280;63139;52.018;8.552;2023-04-25T05:12:40;99891.88;;;6.90;79.07
74633;BME280;63139;52.018;8.552;2023-04-25T05:15:36;99898.66;;;6.92;78.86
74633;BME280;63139;52.018;8.552;2023-04-25T05:18:22;99903.94;;;7.00;79.04
74633;BME280;63139;52.018;8.552;2023-04-25T05:21:05;99901.00;;;7.04;78.58
74633;BME280;63139;52.018;8.552;2023-04-25T05:24:05;99907.88;;;7.05;77.93
74633;BME280;63139;52.018;8.552;2023-04-25T05:26:52;99914.16;;;7.12;77.83
74633;BME280;63139;52.018;8.552;2023-04-25T05:29:39;99920.28;;;7.20;77.24
74633;BME280;63139;52.018;8.552;2023-04-25T05:32:36;99922.94;;;7.28;76.67
74633;BME280;63139;52.018;8.552;2023-04-25T05:35:04;99921.00;;;7.38;76.50
74633;BME280;63139;52.018;8.552;2023-04-25T05:37:40;99927.28;;;7.54;76.08
74633;BME280;63139;52.018;8.552;2023-04-25T05:40:11;99922.84;;;7.62;75.54
74633;BME280;63139;52.018;8.552;2023-04-25T05:43:12;99930.75;;;7.78;74.33
74633;BME280;63139;52.018;8.552;2023-04-25T05:46:09;99925.84;;;7.84;73.59
74633;BME280;63139;52.018;8.552;2023-04-25T05:48:50;99925.69;;;7.85;73.11
74633;BME280;63139;52.018;8.552;2023-04-25T05:51:34;99922.03;;;7.86;72.00
74633;BME280;63139;52.018;8.552;2023-04-25T05:54:15;99933.91;;;7.82;72.61
74633;BME280;63139;52.018;8.552;2023-04-25T05:56:43;99938.66;;;7.87;72.76
74633;BME280;63139;52.018;8.552;2023-04-25T05:59:12;99936.03;;;7.95;72.49
74633;BME280;63139;52.018;8.552;2023-04-25T06:01:40;99937.53;;;8.05;73.05
74633;BME280;63139;52.018;8.552;2023-04-25T06:04:08;99938.16;;;8.15;72.38
74633;BME280;63139;52.018;8.552;2023-04-25T06:06:37;99948.91;;;8.22;71.66
74633;BME280;63139;52.018;8.552;2023-04-25T06:09:05;99953.53;;;8.36;71.34
74633;BME280;63139;52.018;8.552;2023-04-25T06:11:33;99957.47;;;8.40;71.63
74633;BME280;63139;52.018;8.552;2023-04-25T06:14:02;99962.28;;;8.37;69.91
74633;BME280;63139;52.018;8.552;2023-04-25T06:16:33;99956.31;;;8.43;70.94
74633;BME280;63139;52.018;8.552;2023-04-25T06:19:01;99950.53;;;8.55;70.27
74633;BME280;63139;52.018;8.552;2023-04-25T06:21:29;99957.59;;;8.63;69.79
74633;BME280;63139;52.018;8.552;2023-04-25T06:23:58;99956.75;;;8.71;69.91
74633;BME280;63139;52.018;8.552;2023-04-25T06:26:27;99964.66;;;8.71;69.65
74633;BME280;63139;52.018;8.552;2023-04-25T06:28:55;99974.19;;;8.88;69.10
74633;BME280;63139;52.018;8.552;2023-04-25T06:31:22;99964.94;;;8.92;68.55
74633;BME280;63139;52.018;8.552;2023-04-25T06:33:52;99967.56;;;8.92;67.13
74633;BME280;63139;52.018;8.552;2023-04-25T06:36:23;99970.34;;;8.99;67.72
74633;BME280;63139;52.018;8.552;2023-04-25T06:38:54;99971.44;;;9.12;68.17
74633;BME280;63139;52.018;8.552;2023-04-25T06:41:22;99971.09;;;9.23;67.46
74633;BME280;63139;52.018;8.552;2023-04-25T06:43:50;99977.00;;;9.33;66.75
74633;BME280;63139;52.018;8.552;2023-04-25T06:46:29;99983.22;;;9.41;66.46
74633;BME280;63139;52.018;8.552;2023-04-25T06:48:59;99981.09;;;9.36;65.29
74633;BME280;63139;52.018;8.552;2023-04-25T06:51:27;99979.38;;;9.51;65.23
74633;BME280;63139;52.018;8.552;2023-04-25T06:53:57;99975.84;;;9.59;63.97
74633;BME280;63139;52.018;8.552;2023-04-25T06:56:30;99988.69;;;9.70;64.23
74633;BME280;63139;52.018;8.552;2023-04-25T06:59:04;99984.97;;;9.79;63.62
74633;BME280;63139;52.018;8.552;2023-04-25T07:01:34;99988.81;;;9.77;63.58
74633;BME280;63139;52.018;8.552;2023-04-25T07:04:08;100005.53;;;9.69;62.73
74633;BME280;63139;52.018;8.552;2023-04-25T07:06:42;99998.69;;;9.83;63.00
74633;BME280;63139;52.018;8.552;2023-04-25T07:09:11;99999.13;;;9.86;63.00
74633;BME280;63139;52.018;8.552;2023-04-25T07:11:41;100005.78;;;9.82;62.10
74633;BME280;63139;52.018;8.552;2023-04-25T07:14:09;100005.97;;;10.03;61.90
74633;BME280;63139;52.018;8.552;2023-04-25T07:16:37;100016.63;;;10.18;61.19
74633;BME280;63139;52.018;8.552;2023-04-25T07:19:04;100006.47;;;10.30;60.81
74633;BME280;63139;52.018;8.552;2023-04-25T07:21:34;100006.81;;;10.27;61.51
74633;BME280;63139;52.018;8.552;2023-04-25T07:24:04;100008.81;;;10.62;60.50
74633;BME280;63139;52.018;8.552;2023-04-25T07:26:35;100008.84;;;10.77;59.55
74633;BME280;63139;52.018;8.552;2023-04-25T07:29:30;100020.91;;;10.79;59.35
74633;BME280;63139;52.018;8.552;2023-04-25T07:31:59;100018.00;;;10.89;58.00
74633;BME280;63139;52.018;8.552;2023-04-25T07:34:27;100018.09;;;11.10;56.75
74633;BME280;63139;52.018;8.552;2023-04-25T07:36:57;100015.06;;;11.13;54.81
74633;BME280;63139;52.018;8.552;2023-04-25T07:39:33;100026.38;;;11.37;56.30
74633;BME280;63139;52.018;8.552;2023-04-25T07:42:01;100027.38;;;11.36;54.35
74633;BME280;63139;52.018;8.552;2023-04-25T07:44:30;100028.22;;;11.36;56.32
74633;BME280;63139;52.018;8.552;2023-04-25T07:46:58;100032.44;;;11.31;55.24
74633;BME280;63139;52.018;8.552;2023-04-25T07:49:29;100030.44;;;11.33;54.57
74633;BME280;63139;52.018;8.552;2023-04-25T07:51:59;100028.94;;;11.30;54.12
74633;BME280;63139;52.018;8.552;2023-04-25T07:54:26;100028.94;;;11.45;53.50
74633;BME280;63139;52.018;8.552;2023-04-25T07:57:03;100031.03;;;11.49;52.43
74633;BME280;63139;52.018;8.552;2023-04-25T07:59:33;100031.28;;;11.69;52.46
74633;BME280;63139;52.018;8.552;2023-04-25T08:02:02;100038.66;;;11.74;51.89
74633;BME280;63139;52.018;8.552;2023-04-25T08:04:30;100044.25;;;11.79;52.13
74633;BME280;63139;52.018;8.552;2023-04-25T08:07:03;100053.41;;;12.12;52.82
74633;BME280;63139;52.018;8.552;2023-04-25T08:09:39;100056.75;;;11.99;50.71
74633;BME280;63139;52.018;8.552;2023-04-25T08:12:14;100045.22;;;12.07;50.42
74633;BME280;63139;52.018;8.552;2023-04-25T08:14:42;100042.44;;;12.36;48.45
74633;BME280;63139;52.018;8.552;2023-04-25T08:17:10;100051.06;;;12.45;47.85
74633;BME280;63139;52.018;8.552;2023-04-25T08:19:40;100054.94;;;12.42;47.85
74633;BME280;63139;52.018;8.552;2023-04-25T08:22:17;100062.19;;;12.13;47.42
74633;BME280;63139;52.018;8.552;2023-04-25T08:24:53;100066.50;;;12.56;47.58
74633;BME280;63139;52.018;8.552;2023-04-25T08:27:21;100068.50;;;12.54;46.76
74633;BME280;63139;52.018;8.552;2023-04-25T08:29:50;100072.44;;;12.58;48.11
74633;BME280;63139;52.018;8.552;2023-04-25T08:32:19;100066.44;;;12.50;45.69
74633;BME280;63139;52.018;8.552;2023-04-25T08:35:09;100080.34;;;12.52;47.42
74633;BME280;63139;52.018;8.552;2023-04-25T08:37:39;100083.13;;;12.65;47.91
74633;BME280;63139;52.018;8.552;2023-04-25T08:40:14;100092.09;;;12.64;47.41
74633;BME280;63139;52.018;8.552;2023-04-25T08:42:50;100081.97;;;12.53;46.80
74633;BME280;63139;52.018;8.552;2023-04-25T08:45:19;100090.34;;;12.28;47.79
74633;BME280;63139;52.018;8.552;2023-04-25T08:47:47;100095.19;;;12.25;46.77
74633;BME280;63139;52.018;8.552;2023-04-25T08:50:17;100098.72;;;12.11;48.12
74633;BME280;63139;52.018;8.552;2023-04-25T08:52:53;100103.13;;;12.03;45.83
74633;BME280;63139;52.018;8.552;2023-04-25T08:55:22;100109.91;;;12.06;45.99
74633;BME280;63139;52.018;8.552;2023-04-25T08:57:54;100112.66;;;12.34;45.95
74633;BME280;63139;52.018;8.552;2023-04-25T09:00:22;100103.03;;;12.33;45.83
74633;BME280;63139;52.018;8.552;2023-04-25T09:02:51;100104.69;;;12.55;46.39
74633;BME280;63139;52.018;8.552;2023-04-25T09:05:19;100116.06;;;12.49;46.16
74633;BME280;63139;52.018;8.552;2023-04-25T09:07:52;100108.09;;;12.28;46.32
74633;BME280;63139;52.018;8.552;2023-04-25T09:10:20;100111.13;;;11.89;45.24
74633;BME280;63139;52.018;8.552;2023-04-25T09:13:02;100116.03;;;12.07;44.83
74633;BME280;63139;52.018;8.552;2023-04-25T09:15:46;100123.13;;;11.85;45.70
74633;BME280;63139;52.018;8.552;2023-04-25T09:18:29;100130.94;;;11.34;45.79
74633;BME280;63139;52.018;8.552;2023-04-25T09:21:06;100130.56;;;11.22;46.19
74633;BME280;63139;52.018;8.552;2023-04-25T09:23:46;100139.44;;;11.74;46.30
74633;BME280;63139;52.018;8.552;2023-04-25T09:26:15;100134.41;;;12.08;45.58
74633;BME280;63139;52.018;8.552;2023-04-25T09:28:44;100141.91;;;12.04;46.57
74633;BME280;63139;52.018;8.552;2023-04-25T09:31:21;100151.34;;;12.07;46.33
74633;BME280;63139;52.018;8.552;2023-04-25T09:33:58;100134.97;;;12.03;46.34
74633;BME280;63139;52.018;8.552;2023-04-25T09:36:30;100146.34;;;12.33;45.06
74633;BME280;63139;52.018;8.552;2023-04-25T09:39:19;100150.03;;;12.18;44.82
74633;BME280;63139;52.018;8.552;2023-04-25T09:42:00;100144.41;;;11.91;44.23
74633;BME280;63139;52.018;8.552;2023-04-25T09:44:28;100136.81;;;11.88;45.69
74633;BME280;63139;52.018;8.552;2023-04-25T09:46:56;100149.88;;;11.60;46.42
74633;BME280;63139;52.018;8.552;2023-04-25T09:49:28;100154.63;;;11.50;46.88
74633;BME280;63139;52.018;8.552;2023-04-25T09:52:01;100164.38;;;11.20;45.68
74633;BME280;63139;52.018;8.552;2023-04-25T09:54:42;100156.13;;;11.15;45.66
74633;BME280;63139;52.018;8.552;2023-04-25T09:57:19;100163.56;;;11.49;46.81
74633;BME280;63139;52.018;8.552;2023-04-25T09:59:50;100168.06;;;11.63;47.30
74633;BME280;63139;52.018;8.552;2023-04-25T10:02:23;100167.25;;;11.34;46.11
74633;BME280;63139;52.018;8.552;2023-04-25T10:04:55;100170.41;;;11.29;47.47
74633;BME280;63139;52.018;8.552;2023-04-25T10:07:30;100170.91;;;10.95;46.62
74633;BME280;63139;52.018;8.552;2023-04-25T10:10:02;100177.13;;;10.79;47.79
74633;BME280;63139;52.018;8.552;2023-04-25T10:12:31;100184.13;;;10.49;47.22
74633;BME280;63139;52.018;8.552;2023-04-25T10:15:01;100184.94;;;10.19;48.60
74633;BME280;63139;52.018;8.552;2023-04-25T10:17:31;100183.56;;;10.31;49.72
74633;BME280;63139;52.018;8.552;2023-04-25T10:20:01;100194.28;;;10.38;50.41
74633;BME280;63139;52.018;8.552;2023-04-25T10:22:32;100190.06;;;10.21;49.71
74633;BME280;63139;52.018;8.552;2023-04-25T10:25:04;100194.50;;;10.59;49.30
74633;BME280;63139;52.018;8.552;2023-04-25T10:27:33;100195.69;;;10.79;49.54
74633;BME280;63139;52.018;8.552;2023-04-25T10:30:03;100200.66;;;10.97;49.86
74633;BME280;63139;52.018;8.552;2023-04-25T10:32:32;100196.56;;;10.95;48.54
74633;BME280;63139;52.018;8.552;2023-04-25T10:35:10;100203.00;;;11.15;47.69
74633;BME280;63139;52.018;8.552;2023-04-25T10:37:56;100198.16;;;11.56;47.58
74633;BME280;63139;52.018;8.552;2023-04-25T10:40:25;100203.22;;;11.95;48.18
74633;BME280;63139;52.018;8.552;2023-04-25T10:42:53;100198.63;;;12.18;48.82
74633;BME280;63139;52.018;8.552;2023-04-25T10:45:22;100203.22;;;12.10;47.98
74633;BME280;63139;52.018;8.552;2023-04-25T10:47:50;100205.13;;;12.01;48.82
74633;BME280;63139;52.018;8.552;2023-04-25T10:50:18;100203.13;;;11.88;48.03
74633;BME280;63139;52.018;8.552;2023-04-25T10:52:46;100203.53;;;11.85;46.71
74633;BME280;63139;52.018;8.552;2023-04-25T10:55:13;100203.69;;;12.13;47.60
74633;BME280;63139;52.018;8.552;2023-04-25T10:57:44;100203.25;;;12.81;46.28
74633;BME280;63139;52.018;8.552;2023-04-25T11:00:15;100197.22;;;13.15;45.37
74633;BME280;63139;52.018;8.552;2023-04-25T11:02:45;100198.75;;;13.03;43.71
74633;BME280;63139;52.018;8.552;2023-04-25T11:05:26;100202.78;;;12.78;43.56
74633;BME280;63139;52.018;8.552;2023-04-25T11:08:00;100200.63;;;12.67;43.88
74633;BME280;63139;52.018;8.552;2023-04-25T11:10:34;100191.28;;;12.35;45.55
74633;BME280;63139;52.018;8.552;2023-04-25T11:13:04;100205.34;;;11.99;46.39
74633;BME280;63139;52.018;8.552;2023-04-25T11:15:32;100206.06;;;11.79;46.49
74633;BME280;63139;52.018;8.552;2023-04-25T11:18:00;100195.69;;;11.40;45.36
74633;BME280;63139;52.018;8.552;2023-04-25T11:20:29;100201.94;;;11.24;45.49
74633;BME280;63139;52.018;8.552;2023-04-25T11:22:57;100212.94;;;11.13;45.58
74633;BME280;63139;52.018;8.552;2023-04-25T11:25:26;100210.13;;;11.14;46.54
74633;BME280;63139;52.018;8.552;2023-04-25T11:27:56;100219.72;;;11.38;45.95
74633;BME280;63139;52.018;8.552;2023-04-25T11:30:26;100216.09;;;11.68;45.50
74633;BME280;63139;52.018;8.552;2023-04-25T11:32:55;100207.53;;;11.96;45.16
74633;BME280;63139;52.018;8.552;2023-04-25T11:35:23;100204.75;;;12.33;45.17
74633;BME280;63139;52.018;8.552;2023-04-25T11:37:52;100211.31;;;12.37;46.03
74633;BME280;63139;52.018;8.552;2023-04-25T11:40:20;100212.09;;;12.02;47.25
74633;BME280;63139;52.018;8.552;2023-04-25T11:42:48;100219.47;;;11.62;47.78
74633;BME280;63139;52.018;8.552;2023-04-25T11:45:22;100217.75;;;11.17;48.67
74633;BME280;63139;52.018;8.552;2023-04-25T11:47:52;100224.88;;;10.94;48.22
74633;BME280;63139;52.018;8.552;2023-04-25T11:50:20;100231.03;;;10.64;49.65
74633;BME280;63139;52.018;8.552;2023-04-25T11:52:48;100238.75;;;10.42;50.56
74633;BME280;63139;52.018;8.552;2023-04-25T11:55:18;100244.16;;;10.02;51.35
74633;BME280;63139;52.018;8.552;2023-04-25T11:57:48;100243.56;;;9.92;53.51
74633;BME280;63139;52.018;8.552;2023-04-25T12:00:18;100252.25;;;10.00;54.56
74633;BME280;63139;52.018;8.552;2023-04-25T12:02:50;100259.50;;;10.23;53.98
74633;BME280;63139;52.018;8.552;2023-04-25T12:05:23;100258.81;;;10.37;53.85
74633;BME280;63139;52.018;8.552;2023-04-25T12:08:12;100253.13;;;10.79;53.19
74633;BME280;63139;52.018;8.552;2023-04-25T12:10:41;100256.72;;;11.09;51.37
74633;BME280;63139;52.018;8.552;2023-04-25T12:13:23;100257.00;;;11.14;51.36
74633;BME280;63139;52.018;8.552;2023-04-25T12:15:51;100266.94;;;11.12;51.52
74633;BME280;63139;52.018;8.552;2023-04-25T12:18:20;100261.47;;;10.90;51.97
74633;BME280;63139;52.018;8.552;2023-04-25T12:20:50;100261.84;;;10.57;52.72
74633;BME280;63139;52.018;8.552;2023-04-25T12:23:25;100259.28;;;10.40;52.46
74633;BME280;63139;52.018;8.552;2023-04-25T12:25:53;100263.28;;;10.36;52.99
74633;BME280;63139;52.018;8.552;2023-04-25T12:28:24;100260.06;;;10.49;52.41
74633;BME280;63139;52.018;8.552;2023-04-25T12:30:55;100265.91;;;10.67;51.85
74633;BME280;63139;52.018;8.552;2023-04-25T12:33:25;100263.34;;;10.82;50.93
74633;BME280;63139;52.018;8.552;2023-04-25T12:35:55;100258.25;;;11.03;50.31
74633;BME280;63139;52.018;8.552;2023-04-25T12:38:23;100248.81;;;11.23;50.60
74633;BME280;63139;52.018;8.552;2023-04-25T12:40:52;100252.47;;;11.22;49.47
74633;BME280;63139;52.018;8.552;2023-04-25T12:43:20;100250.03;;;11.13;49.78
74633;BME280;63139;52.018;8.552;2023-04-25T12:45:49;100252.84;;;10.97;48.76
74633;BME280;63139;52.018;8.552;2023-04-25T12:48:18;100248.63;;;10.79;48.94
74633;BME280;63139;52.018;8.552;2023-04-25T12:50:46;100253.56;;;10.82;49.41
74633;BME280;63139;52.018;8.552;2023-04-25T12:53:17;100242.50;;;10.79;48.83
74633;BME280;63139;52.018;8.552;2023-04-25T12:55:46;100239.00;;;10.86;49.52
74633;BME280;63139;52.018;8.552;2023-04-25T12:58:15;100247.03;;;10.70;48.64
74633;BME280;63139;52.018;8.552;2023-04-25T13:00:44;100238.06;;;10.79;47.58
74633;BME280;63139;52.018;8.552;2023-04-25T13:03:12;100239.81;;;11.10;46.63
74633;BME280;63139;52.018;8.552;2023-04-25T13:05:42;100250.34;;;11.41;46.77
74633;BME280;63139;52.018;8.552;2023-04-25T13:08:10;100245.91;;;11.71;46.12
74633;BME280;63139;52.018;8.552;2023-04-25T13:10:39;100242.88;;;11.74;46.91
74633;BME280;63139;52.018;8.552;2023-04-25T13:13:07;100250.72;;;11.52;45.81
74633;BME280;63139;52.018;8.552;2023-04-25T13:15:35;100257.28;;;11.19;45.30
74633;BME280;63139;52.018;8.552;2023-04-25T13:18:04;100262.25;;;10.99;45.52
74633;BME280;63139;52.018;8.552;2023-04-25T13:20:32;100271.81;;;10.46;49.97
74633;BME280;63139;52.018;8.552;2023-04-25T13:23:00;100300.22;;;10.05;53.46